Currently 51°F in Lake Elsinore, California, USA
51°F
51°F / 36°F
4 mph SE
0.00"
Thursday, March 23, 2017 11:28 AM PDT

Lake Elsinore, California Weather Summary
Last 36 Hours

Temperature Winds Hourly Humidity Dewpoint
Time Report Norm Report Norm Max Gusts Precip. Rpt. Norm Rpt. Norm Pressure
1,2Thu 11:28 AM  51.1°F  66°F  4 mph SE  3 mph  7 mph  0.00"  59%  57%  37°F  50°F  30.14"
Thu 11:00 AM  49.2°F  64°F  3 mph S  2 mph  7 mph  0.00"  62%  61%  36°F  50°F  30.14"
Thu 10:00 AM  45.2°F  60°F  4 mph NE  2 mph  8 mph  0.00"  71%  71%  36°F  50°F  30.11"
Thu 09:00 AM  44.6°F  56°F  4 mph E  1 mph  6 mph  0.00"  83%  82%  39°F  50°F  30.10"
Thu 08:00 AM  39.1°F  49°F  3 mph NE  1 mph  3 mph  0.00"  96%  92%  38°F  47°F  30.08"
3Thu 07:21 AM  36.2°F  47°F  3 mph S  1 mph  3 mph  ----  95%  93%  35°F  45°F  30.06"
Thu 07:00 AM  36.7°F  47°F  calm  calm  6 mph  0.00"  95%  93%  35°F  45°F  30.06"
Thu 06:00 AM  38.3°F  47°F  3 mph NE  calm  9 mph  0.00"  94%  93%  37°F  45°F  30.05"
Thu 05:00 AM  39.4°F  47°F  calm  1 mph  9 mph  0.00"  87%  92%  36°F  45°F  30.03"
Thu 04:00 AM  40.3°F  48°F  calm  calm  17 mph  0.00"  87%  91%  37°F  45°F  30.01"
Thu 03:00 AM  40.5°F  49°F  3 mph SW  calm  17 mph  0.00"  86%  89%  36°F  46°F  30.02"
Thu 02:00 AM  40.9°F  50°F  6 mph SW  1 mph  15 mph  0.00"  87%  88%  37°F  46°F  30.02"
Thu 01:00 AM  42.4°F  51°F  5 mph S  1 mph  13 mph  0.00"  84%  86%  38°F  46°F  30.02"
Thu 12:00 AM  43.3°F  52°F  4 mph S  1 mph  13 mph  0.00"  83%  84%  38°F  47°F  30.02"
Wed 11:00 PM  43.5°F  53°F  calm  1 mph  13 mph  0.00"  84%  81%  39°F  48°F  30.01"
Wed 10:00 PM  44.0°F  55°F  calm  1 mph  11 mph  0.00"  83%  78%  39°F  48°F  30.03"
Wed 09:00 PM  44.6°F  57°F  7 mph SW  2 mph  18 mph  0.00"  79%  74%  38°F  49°F  30.02"
Wed 08:00 PM  44.9°F  60°F  12 mph SW  2 mph  23 mph  0.00"  80%  68%  39°F  49°F  29.99"
Wed 07:00 PM  45.7°F  63°F  11 mph SW  4 mph  27 mph  0.00"  78%  61%  39°F  49°F  29.97"
Wed 06:00 PM  48.8°F  67°F  13 mph SW  5 mph  26 mph  0.00"  72%  53%  40°F  49°F  29.96"
Wed 05:00 PM  52.0°F  71°F  14 mph SW  6 mph  25 mph  0.00"  69%  48%  42°F  49°F  29.95"
Wed 04:00 PM  56.4°F  73°F  11 mph SW  5 mph  22 mph  0.00"  59%  45%  41°F  49°F  29.97"
Wed 03:00 PM  55.7°F  73°F  10 mph SW  5 mph  19 mph  0.00"  59%  45%  41°F  49°F  29.98"
Wed 02:00 PM  53.8°F  72°F  8 mph SW  4 mph  22 mph  0.00"  70%  45%  44°F  49°F  30.01"
Wed 01:00 PM  54.0°F  70°F  9 mph SW  3 mph  18 mph  0.00"  67%  47%  43°F  49°F  30.04"
Wed 12:00 PM  57.3°F  68°F  8 mph S  3 mph  15 mph  0.00"  56%  53%  41°F  49°F  30.04"
Wed 11:00 AM  56.0°F  64°F  8 mph SW  2 mph  12 mph  0.00"  64%  61%  44°F  50°F  30.05"
Wed 10:00 AM  50.9°F  60°F  2 mph SW  2 mph  10 mph  0.00"  85%  71%  46°F  50°F  30.05"
Wed 09:00 AM  49.1°F  56°F  1 mph E  1 mph  6 mph  0.00"  99%  82%  49°F  50°F  30.05"
Wed 08:00 AM  47.8°F  49°F  1 mph S  1 mph  4 mph  0.00"  100%  91%  48°F  47°F  30.05"
Wed 07:00 AM  47.0°F  47°F  calm  1 mph  none  0.00"  100%  92%  47°F  45°F  30.04"
Wed 06:00 AM  47.0°F  47°F  calm  calm  none  0.00"  100%  92%  47°F  45°F  30.04"
Wed 05:00 AM  46.6°F  48°F  calm  calm  none  0.00"  100%  91%  47°F  45°F  30.03"
Wed 04:00 AM  46.8°F  48°F  calm  calm  none  0.00"  100%  90%  47°F  45°F  30.03"
Wed 03:00 AM  47.1°F  49°F  calm  calm  3 mph  0.01"  100%  89%  47°F  46°F  30.05"
Wed 02:00 AM  47.2°F  50°F  calm  1 mph  none  0.01"  100%  87%  47°F  46°F  30.06"
Wed 01:00 AM  47.1°F  51°F  calm  1 mph  4 mph  0.00"  100%  85%  47°F  46°F  30.07"
Wed 12:00 AM  47.4°F  52°F  calm  1 mph  5 mph  0.00"  99%  83%  47°F  47°F  30.08"

  1. Current weather data. No green row appears if the current weather data is also the high or low for the current day.
  2. High temperature for the current day.
  3. Low temperature for the current day.

The Lake Elsinore, California weather pages are a service of WeatherCurrents. Lake Elsinore is located south of Corona and north of the Temecula Valley, in southwestern Riverside County, California.
Copyright ©Thu Mar 23 11:28:15 PDT 2017  WeatherCurrents. All rights reserved. - Submit questions and comments - Privacy Policy

This page automatically refreshes every 10 minutes.